Time;durP1;ratioP1;P1;durP2;ratioP2;P2;SDS_P1;SDS_P2;PMS_P1;PMS_P2;Temp;Humidity;BMP_temperature;BMP_pressure;BME280_temperature;BME280_humidity;BME280_pressure;Samples;Min_cycle;Max_cycle;Signal;HPM_P1;HPM_P2
2022/04/08 00:01:01;;;;;;;1.75;0.50;;;17.70;66.50;;;;;;5104989;27;45973;-78
2022/04/08 00:03:30;;;;;;;1.85;0.50;;;17.70;66.30;;;;;;5107733;27;45606;-78
2022/04/08 00:05:57;;;;;;;0.73;0.40;;;17.70;67.00;;;;;;5106668;27;45253;-78
2022/04/08 00:08:24;;;;;;;1.23;0.50;;;17.70;65.80;;;;;;5105090;27;45269;-79
2022/04/08 00:10:51;;;;;;;1.75;0.40;;;17.70;65.90;;;;;;5104250;27;47427;-77
2022/04/08 00:13:18;;;;;;;0.63;0.40;;;17.70;65.40;;;;;;5107206;27;45331;-77
2022/04/08 00:15:45;;;;;;;1.23;0.40;;;17.70;65.00;;;;;;5107045;27;45226;-77
2022/04/08 00:18:12;;;;;;;1.90;0.47;;;17.70;64.90;;;;;;5106842;27;45180;-77
2022/04/08 00:20:41;;;;;;;1.60;0.52;;;17.70;64.70;;;;;;5106578;27;45227;-77
2022/04/08 00:23:07;;;;;;;0.90;0.50;;;17.70;65.00;;;;;;5093757;27;45347;-77
2022/04/08 00:25:34;;;;;;;1.27;0.40;;;17.70;65.10;;;;;;5104562;27;45257;-77
2022/04/08 00:28:01;;;;;;;1.52;0.40;;;17.60;64.70;;;;;;5108487;27;45132;-77
2022/04/08 00:30:28;;;;;;;1.02;0.30;;;17.70;64.60;;;;;;5103723;27;47964;-77
2022/04/08 00:32:57;;;;;;;0.55;0.25;;;17.60;64.90;;;;;;5108011;27;45362;-76
2022/04/08 00:35:24;;;;;;;1.27;0.30;;;17.60;64.10;;;;;;5106324;27;45348;-76
2022/04/08 00:37:52;;;;;;;1.33;0.35;;;17.60;64.80;;;;;;5106049;27;45412;-77
2022/04/08 00:40:19;;;;;;;0.88;0.43;;;17.60;65.20;;;;;;5104521;27;45409;-78
2022/04/08 00:42:46;;;;;;;0.85;0.40;;;17.60;65.80;;;;;;5107172;27;45282;-78
2022/04/08 00:45:13;;;;;;;7.53;0.50;;;17.70;65.60;;;;;;5106491;27;45258;-77
2022/04/08 00:47:41;;;;;;;0.73;0.30;;;17.70;65.20;;;;;;5102544;27;45352;-77
2022/04/08 00:50:09;;;;;;;0.63;0.30;;;17.70;65.30;;;;;;5103354;27;45599;-77
2022/04/08 00:52:36;;;;;;;1.67;0.35;;;17.70;65.40;;;;;;5107607;27;45236;-77
2022/04/08 00:55:06;;;;;;;0.70;0.30;;;17.70;65.30;;;;;;5103954;27;45264;-77
2022/04/08 00:57:34;;;;;;;0.57;0.20;;;17.70;65.50;;;;;;5107318;27;45450;-77
2022/04/08 01:00:02;;;;;;;1.30;0.40;;;17.70;64.90;;;;;;5104598;27;45371;-77
2022/04/08 01:02:29;;;;;;;1.08;0.38;;;17.70;64.10;;;;;;5106955;27;45261;-76
2022/04/08 01:04:56;;;;;;;0.90;0.40;;;17.70;63.70;;;;;;5105627;27;45318;-76
2022/04/08 01:07:24;;;;;;;1.90;0.45;;;17.60;64.60;;;;;;5107849;27;45418;-76
2022/04/08 01:09:52;;;;;;;0.60;0.30;;;17.60;64.60;;;;;;5104688;27;46978;-76
2022/04/08 01:12:20;;;;;;;1.73;0.50;;;17.60;63.80;;;;;;5106881;27;45334;-76
2022/04/08 01:14:47;;;;;;;1.60;0.47;;;17.60;64.40;;;;;;5105863;27;45210;-77
2022/04/08 01:17:14;;;;;;;1.75;0.35;;;17.50;64.00;;;;;;5107763;27;45257;-77
2022/04/08 01:19:41;;;;;;;1.05;0.50;;;17.50;64.00;;;;;;5102796;27;47058;-77
2022/04/08 01:22:08;;;;;;;1.30;0.30;;;17.60;64.20;;;;;;5098928;27;45317;-76
2022/04/08 01:24:37;;;;;;;1.40;0.40;;;17.60;63.90;;;;;;5106299;27;45293;-76
2022/04/08 01:27:05;;;;;;;0.98;0.50;;;17.60;64.00;;;;;;5105722;27;45523;-76
2022/04/08 01:29:32;;;;;;;1.83;0.47;;;17.50;64.80;;;;;;5099055;27;45513;-76
2022/04/08 01:31:59;;;;;;;0.98;0.30;;;17.60;65.00;;;;;;5114004;27;45263;-77
2022/04/08 01:34:25;;;;;;;0.68;0.25;;;17.60;65.40;;;;;;5107959;27;45205;-77
2022/04/08 01:36:52;;;;;;;0.95;0.20;;;17.60;64.60;;;;;;5103891;27;45294;-77
2022/04/08 01:39:19;;;;;;;0.50;0.30;;;17.60;65.00;;;;;;5099804;27;46532;-77
2022/04/08 01:41:46;;;;;;;1.23;0.50;;;17.60;64.80;;;;;;5101316;27;45321;-76
2022/04/08 01:44:14;;;;;;;0.80;0.30;;;17.60;64.60;;;;;;5104881;27;45314;-77
2022/04/08 01:46:41;;;;;;;1.25;0.43;;;17.60;64.40;;;;;;5109490;27;45194;-76
2022/04/08 01:49:07;;;;;;;1.25;0.50;;;17.60;64.60;;;;;;5109745;27;45193;-77
2022/04/08 01:51:34;;;;;;;1.15;0.35;;;17.60;64.50;;;;;;5109203;27;45194;-77
2022/04/08 01:54:01;;;;;;;1.50;0.50;;;17.60;64.10;;;;;;5107882;27;45190;-77
2022/04/08 01:56:28;;;;;;;2.13;0.50;;;17.60;63.80;;;;;;5109323;27;45143;-76
2022/04/08 01:58:55;;;;;;;0.63;0.20;;;17.60;63.40;;;;;;5108016;27;46600;-77
2022/04/08 02:01:23;;;;;;;0.32;0.28;;;17.60;62.90;;;;;;5100739;27;45105;-77
2022/04/08 02:03:49;;;;;;;1.98;0.38;;;17.60;63.30;;;;;;5109921;27;45330;-77
2022/04/08 02:06:16;;;;;;;0.30;0.20;;;17.60;63.10;;;;;;5109167;27;45203;-77
2022/04/08 02:08:43;;;;;;;2.78;0.63;;;17.60;62.60;;;;;;5107676;27;47078;-77
2022/04/08 02:11:10;;;;;;;2.60;0.50;;;17.60;63.20;;;;;;5110208;27;45248;-77
2022/04/08 02:13:36;;;;;;;1.30;0.47;;;17.60;63.00;;;;;;5108536;27;45224;-77
2022/04/08 02:16:04;;;;;;;1.55;0.45;;;17.60;62.90;;;;;;5107183;27;45154;-77
2022/04/08 02:18:32;;;;;;;1.58;0.50;;;17.60;62.90;;;;;;5096244;27;45869;-77
2022/04/08 02:21:00;;;;;;;1.25;0.50;;;17.60;63.40;;;;;;5110083;27;46137;-77
2022/04/08 02:23:27;;;;;;;1.83;0.50;;;17.60;64.10;;;;;;5092975;27;45246;-77
2022/04/08 02:25:55;;;;;;;0.65;0.30;;;17.60;63.80;;;;;;5108995;27;45185;-77
2022/04/08 02:28:22;;;;;;;1.73;0.90;;;17.60;64.20;;;;;;5099958;27;47477;-77
2022/04/08 02:30:49;;;;;;;1.30;0.40;;;17.60;64.00;;;;;;5107073;27;45362;-77
2022/04/08 02:33:16;;;;;;;1.33;0.40;;;17.70;64.20;;;;;;5107537;27;45245;-77
2022/04/08 02:35:44;;;;;;;0.57;0.25;;;17.70;64.10;;;;;;5109919;27;45179;-77
2022/04/08 02:38:11;;;;;;;1.35;0.35;;;17.60;64.30;;;;;;5105551;27;46197;-77
2022/04/08 02:40:38;;;;;;;1.15;0.55;;;17.70;64.00;;;;;;5106830;27;45506;-77
2022/04/08 02:43:05;;;;;;;1.05;0.47;;;17.70;63.40;;;;;;5113447;27;45222;-76
2022/04/08 02:45:32;;;;;;;2.10;0.65;;;17.60;63.00;;;;;;5109450;27;45360;-77
2022/04/08 02:47:59;;;;;;;1.13;0.50;;;17.70;62.60;;;;;;5109188;27;45482;-77
2022/04/08 02:50:26;;;;;;;1.88;0.52;;;17.60;62.80;;;;;;5106643;27;45200;-76
2022/04/08 02:52:54;;;;;;;0.82;0.30;;;17.60;62.20;;;;;;5109521;27;45333;-77
2022/04/08 02:55:21;;;;;;;1.20;0.40;;;17.60;62.30;;;;;;5106988;27;45300;-77
2022/04/08 02:57:48;;;;;;;2.53;0.80;;;17.60;62.60;;;;;;5107483;27;47524;-77
2022/04/08 03:00:16;;;;;;;1.13;0.47;;;17.60;62.90;;;;;;5106908;27;45165;-77
2022/04/08 03:02:43;;;;;;;1.23;0.60;;;17.60;62.80;;;;;;5105040;27;45253;-77
2022/04/08 03:05:10;;;;;;;1.75;0.50;;;17.60;62.90;;;;;;5105641;27;45270;-77
2022/04/08 03:07:37;;;;;;;1.00;0.55;;;17.60;62.50;;;;;;5107604;27;46413;-77
2022/04/08 03:10:07;;;;;;;1.55;0.30;;;17.60;62.50;;;;;;5106270;27;45152;-77
2022/04/08 03:12:34;;;;;;;0.93;0.50;;;17.60;63.40;;;;;;5110043;27;45378;-77
2022/04/08 03:15:02;;;;;;;2.25;0.50;;;17.60;63.70;;;;;;5107241;27;45289;-77
2022/04/08 03:17:28;;;;;;;0.90;0.38;;;17.60;64.00;;;;;;5100237;27;45296;-77
2022/04/08 03:19:57;;;;;;;1.40;0.50;;;17.60;63.90;;;;;;5105873;27;45514;-77
2022/04/08 03:22:24;;;;;;;1.63;0.70;;;17.60;64.10;;;;;;5109099;27;45243;-77
2022/04/08 03:24:52;;;;;;;1.17;0.43;;;17.70;64.00;;;;;;5109070;27;45253;-77
2022/04/08 03:27:20;;;;;;;0.47;0.30;;;17.70;63.90;;;;;;5108636;27;46178;-77
2022/04/08 03:29:48;;;;;;;0.93;0.40;;;17.70;64.00;;;;;;5105976;27;45163;-77
2022/04/08 03:32:15;;;;;;;0.90;0.40;;;17.70;63.80;;;;;;5107923;27;45550;-77
2022/04/08 03:34:42;;;;;;;0.63;0.43;;;17.60;63.20;;;;;;5106391;27;45145;-77
2022/04/08 03:37:10;;;;;;;1.13;0.30;;;17.60;62.40;;;;;;5100352;27;45994;-77
2022/04/08 03:39:37;;;;;;;0.75;0.32;;;17.60;62.70;;;;;;5099706;27;45258;-77
2022/04/08 03:42:04;;;;;;;1.80;0.60;;;17.60;62.40;;;;;;5105949;27;45282;-77
2022/04/08 03:44:32;;;;;;;0.93;0.50;;;17.60;61.90;;;;;;5105831;27;45614;-77
2022/04/08 03:46:59;;;;;;;1.17;0.60;;;17.60;62.30;;;;;;5102171;27;47410;-77
2022/04/08 03:49:26;;;;;;;1.38;0.50;;;17.60;61.90;;;;;;5098179;27;45293;-77
2022/04/08 03:51:54;;;;;;;0.90;0.47;;;17.60;61.80;;;;;;5106076;27;45247;-77
2022/04/08 03:54:21;;;;;;;1.27;0.60;;;17.60;61.90;;;;;;5105261;27;45480;-77
2022/04/08 03:56:48;;;;;;;0.38;0.35;;;17.60;62.00;;;;;;5100694;27;46210;-77
2022/04/08 03:59:16;;;;;;;1.40;0.60;;;17.60;62.20;;;;;;5107766;27;45205;-78
2022/04/08 04:01:44;;;;;;;0.95;0.30;;;17.60;62.20;;;;;;5104148;27;45293;-77
2022/04/08 04:04:11;;;;;;;0.95;0.52;;;17.60;63.00;;;;;;5099548;27;45623;-78
2022/04/08 04:06:37;;;;;;;1.65;0.70;;;17.60;62.90;;;;;;5102211;27;46627;-77
2022/04/08 04:09:04;;;;;;;1.75;0.47;;;17.60;63.10;;;;;;5104500;27;45202;-77
2022/04/08 04:11:32;;;;;;;1.13;0.65;;;17.60;63.60;;;;;;5106119;27;45234;-77
2022/04/08 04:13:59;;;;;;;1.33;0.70;;;17.60;63.10;;;;;;5108523;27;45378;-77
2022/04/08 04:16:26;;;;;;;1.27;0.50;;;17.70;63.60;;;;;;5106498;27;47496;-78
2022/04/08 04:18:55;;;;;;;1.13;0.50;;;17.70;62.80;;;;;;5106112;27;45247;-78
2022/04/08 04:21:22;;;;;;;1.08;0.50;;;17.70;63.50;;;;;;5105343;27;45687;-78
2022/04/08 04:23:49;;;;;;;1.75;0.70;;;17.70;62.70;;;;;;5108487;27;45370;-77
2022/04/08 04:26:16;;;;;;;2.10;0.60;;;17.60;62.30;;;;;;5106617;27;47163;-78
2022/04/08 04:28:43;;;;;;;0.75;0.60;;;17.60;62.10;;;;;;5107742;27;45598;-78
2022/04/08 04:31:10;;;;;;;1.48;0.60;;;17.60;62.30;;;;;;5103384;27;45364;-77
2022/04/08 04:33:36;;;;;;;1.30;0.60;;;17.60;62.70;;;;;;5100512;27;45354;-76
2022/04/08 04:36:05;;;;;;;0.73;0.50;;;17.60;63.20;;;;;;5104592;27;46950;-77
2022/04/08 04:38:32;;;;;;;1.02;0.65;;;17.50;63.60;;;;;;5087008;27;45229;-76
2022/04/08 04:40:58;;;;;;;0.82;0.60;;;17.50;63.30;;;;;;5100581;27;45141;-77
2022/04/08 04:43:25;;;;;;;0.73;0.50;;;17.50;63.50;;;;;;5097363;27;45350;-78
2022/04/08 04:45:52;;;;;;;1.15;0.65;;;17.50;62.70;;;;;;5105257;27;46180;-78
2022/04/08 04:48:19;;;;;;;0.65;0.55;;;17.50;62.00;;;;;;5105161;27;45300;-78
2022/04/08 04:50:47;;;;;;;1.30;0.60;;;17.40;61.90;;;;;;5104828;27;45454;-77
2022/04/08 04:53:15;;;;;;;1.13;0.73;;;17.50;63.50;;;;;;5103844;27;45636;-77
2022/04/08 04:55:42;;;;;;;1.02;0.60;;;17.60;64.00;;;;;;5106062;27;46201;-78
2022/04/08 04:58:09;;;;;;;2.00;0.77;;;17.60;63.90;;;;;;5107791;27;45647;-77
2022/04/08 05:00:36;;;;;;;2.85;0.77;;;17.60;64.30;;;;;;5101322;27;45309;-78
2022/04/08 05:03:04;;;;;;;1.02;0.70;;;17.60;63.60;;;;;;5103363;27;45588;-77
2022/04/08 05:05:31;;;;;;;1.38;0.70;;;17.60;64.20;;;;;;5107340;27;45997;-78
2022/04/08 05:08:01;;;;;;;1.17;0.70;;;17.60;64.30;;;;;;5101376;27;45234;-78
2022/04/08 05:10:31;;;;;;;1.60;0.50;;;17.60;63.60;;;;;;5103578;27;45216;-78
2022/04/08 05:12:59;;;;;;;1.23;0.77;;;17.50;63.50;;;;;;5107230;27;45187;-78
2022/04/08 05:15:26;;;;;;;0.50;0.50;;;17.50;63.60;;;;;;5104549;27;47160;-78
2022/04/08 05:17:53;;;;;;;1.58;0.73;;;17.50;63.90;;;;;;5103462;27;45302;-78
2022/04/08 05:20:20;;;;;;;0.98;0.75;;;17.50;64.10;;;;;;5099209;27;45588;-78
2022/04/08 05:22:47;;;;;;;1.55;0.95;;;17.50;63.20;;;;;;5110075;27;45198;-78
2022/04/08 05:25:14;;;;;;;1.30;1.10;;;17.50;62.70;;;;;;5110091;27;45259;-78
2022/04/08 05:27:43;;;;;;;1.50;1.00;;;17.50;62.80;;;;;;5106321;27;45225;-78
2022/04/08 05:30:13;;;;;;;2.08;1.20;;;17.40;62.20;;;;;;5107022;27;45142;-78
2022/04/08 05:32:40;;;;;;;2.25;0.80;;;17.40;62.60;;;;;;5110213;27;45723;-78
2022/04/08 05:35:07;;;;;;;1.52;1.00;;;17.40;62.80;;;;;;5106000;27;45600;-78
2022/04/08 05:37:39;;;;;;;1.80;1.00;;;17.40;62.90;;;;;;5104368;27;45225;-78
2022/04/08 05:40:06;;;;;;;1.90;1.00;;;17.40;62.60;;;;;;5105049;27;45246;-80
2022/04/08 05:42:33;;;;;;;1.42;0.90;;;17.40;63.40;;;;;;5103449;27;45340;-78
2022/04/08 05:45:01;;;;;;;4.20;0.90;;;17.50;64.20;;;;;;5102795;27;46515;-78
2022/04/08 05:47:28;;;;;;;3.65;0.98;;;17.50;63.80;;;;;;5099162;27;45339;-78
2022/04/08 05:49:59;;;;;;;3.35;0.93;;;17.50;63.90;;;;;;5104835;27;45475;-78
2022/04/08 05:52:26;;;;;;;2.25;1.08;;;17.60;63.00;;;;;;5106963;27;45465;-78
2022/04/08 05:54:53;;;;;;;1.65;0.88;;;17.60;62.60;;;;;;5100890;27;46389;-78
2022/04/08 05:57:20;;;;;;;1.58;0.90;;;17.70;62.80;;;;;;5100008;27;45245;-78
2022/04/08 05:59:47;;;;;;;2.15;0.95;;;17.70;62.70;;;;;;5105159;27;45268;-78
2022/04/08 06:02:16;;;;;;;1.65;0.80;;;17.70;62.80;;;;;;5107857;27;45441;-77
2022/04/08 06:04:42;;;;;;;1.25;0.88;;;17.70;62.60;;;;;;5099161;27;45254;-77
2022/04/08 06:07:10;;;;;;;1.83;0.98;;;17.70;62.90;;;;;;5101170;27;45633;-78
2022/04/08 06:09:36;;;;;;;2.08;0.70;;;17.70;63.10;;;;;;5096360;27;45690;-79
2022/04/08 06:12:04;;;;;;;1.75;0.93;;;17.70;63.80;;;;;;5103401;27;45344;-79
2022/04/08 06:14:31;;;;;;;0.90;0.80;;;17.70;63.60;;;;;;5094692;27;46907;-78
2022/04/08 06:16:57;;;;;;;2.13;0.80;;;17.70;63.80;;;;;;5100245;27;45736;-78
2022/04/08 06:19:26;;;;;;;1.20;0.80;;;17.70;63.60;;;;;;5106128;27;45276;-79
2022/04/08 06:21:54;;;;;;;2.08;0.88;;;17.70;63.50;;;;;;5100589;27;45619;-79
2022/04/08 06:24:21;;;;;;;1.65;0.90;;;17.70;63.60;;;;;;5098577;27;45433;-79
2022/04/08 06:26:48;;;;;;;2.05;0.80;;;17.70;63.80;;;;;;5095543;27;45496;-78
2022/04/08 06:29:15;;;;;;;2.28;0.85;;;17.70;63.80;;;;;;5096261;27;45536;-78
2022/04/08 06:31:42;;;;;;;1.30;0.68;;;17.70;63.90;;;;;;5100836;27;45337;-79
2022/04/08 06:34:09;;;;;;;2.10;0.70;;;17.70;64.10;;;;;;5103743;27;46414;-78
2022/04/08 06:36:37;;;;;;;0.90;0.57;;;17.80;64.30;;;;;;5108411;27;45132;-79
2022/04/08 06:39:05;;;;;;;2.10;0.65;;;17.80;64.30;;;;;;5102437;27;45329;-78
2022/04/08 06:41:32;;;;;;;1.88;0.75;;;17.80;65.30;;;;;;5109689;27;45374;-79
2022/04/08 06:43:59;;;;;;;2.85;0.70;;;17.80;64.70;;;;;;5105996;27;46650;-78
2022/04/08 06:46:25;;;;;;;1.38;0.70;;;17.70;64.50;;;;;;5103399;27;45477;-79
2022/04/08 06:48:52;;;;;;;1.25;0.60;;;17.80;64.70;;;;;;5104850;27;45313;-79
2022/04/08 06:51:19;;;;;;;1.75;0.60;;;17.80;64.50;;;;;;5108299;27;45342;-78
2022/04/08 06:53:47;;;;;;;1.25;0.60;;;17.70;63.80;;;;;;5108376;27;45500;-78
2022/04/08 06:56:14;;;;;;;1.25;0.63;;;17.80;64.20;;;;;;5109412;27;45172;-78
2022/04/08 06:58:41;;;;;;;1.08;0.65;;;17.70;62.80;;;;;;5104324;27;46735;-78
2022/04/08 07:01:08;;;;;;;0.75;0.52;;;17.70;63.70;;;;;;5104483;27;45208;-78
2022/04/08 07:03:35;;;;;;;1.98;0.90;;;17.70;63.60;;;;;;5106820;27;46199;-79
2022/04/08 07:06:03;;;;;;;1.27;0.70;;;17.70;62.90;;;;;;5107138;27;45212;-78
2022/04/08 07:08:30;;;;;;;0.85;0.57;;;17.70;62.80;;;;;;5105189;27;45748;-78
2022/04/08 07:10:58;;;;;;;1.83;0.88;;;17.70;62.90;;;;;;5102020;27;45184;-78
2022/04/08 07:13:25;;;;;;;3.08;0.80;;;17.80;62.70;;;;;;5098911;27;45609;-78
2022/04/08 07:15:52;;;;;;;1.35;0.70;;;17.80;62.20;;;;;;5104899;27;45146;-78
2022/04/08 07:18:19;;;;;;;2.67;0.68;;;17.70;62.10;;;;;;5105564;27;45294;-78
2022/04/08 07:20:45;;;;;;;2.33;0.90;;;17.80;62.40;;;;;;5105926;27;45361;-78
2022/04/08 07:23:12;;;;;;;3.08;0.70;;;17.80;62.90;;;;;;5108439;27;47437;-79
2022/04/08 07:25:39;;;;;;;1.13;0.70;;;17.80;63.10;;;;;;5108929;27;45229;-79
2022/04/08 07:28:07;;;;;;;1.42;0.70;;;17.80;62.50;;;;;;5102234;27;45297;-77
2022/04/08 07:30:34;;;;;;;1.85;0.82;;;17.80;62.10;;;;;;5107572;27;45263;-78
2022/04/08 07:33:03;;;;;;;1.83;0.73;;;17.80;61.70;;;;;;5107601;27;46254;-78
2022/04/08 07:35:33;;;;;;;2.15;0.60;;;17.80;62.00;;;;;;5107230;27;45633;-78
2022/04/08 07:38:00;;;;;;;3.72;0.73;;;17.90;62.10;;;;;;5107992;27;45259;-78
2022/04/08 07:40:27;;;;;;;1.85;0.80;;;17.90;63.10;;;;;;5099421;27;45235;-78
2022/04/08 07:42:54;;;;;;;1.35;0.80;;;17.90;62.80;;;;;;5106930;27;47934;-78
2022/04/08 07:45:27;;;;;;;1.42;0.68;;;17.90;62.60;;;;;;5106736;27;45341;-78
2022/04/08 07:47:54;;;;;;;2.33;0.68;;;17.90;62.00;;;;;;5104339;27;45260;-78
2022/04/08 07:50:21;;;;;;;1.88;0.70;;;17.80;61.70;;;;;;5107309;27;45520;-78
2022/04/08 07:52:48;;;;;;;1.27;0.60;;;17.80;62.60;;;;;;5106862;27;47192;-78
2022/04/08 07:55:17;;;;;;;1.38;0.60;;;17.80;62.80;;;;;;5104956;27;45270;-78
2022/04/08 07:57:45;;;;;;;1.92;0.70;;;17.80;62.90;;;;;;5102143;27;45218;-78
2022/04/08 08:00:13;;;;;;;1.83;0.80;;;17.80;62.90;;;;;;5103365;27;45211;-78
2022/04/08 08:02:41;;;;;;;1.13;0.52;;;17.80;62.70;;;;;;5104662;27;46260;-78
2022/04/08 08:05:09;;;;;;;2.85;0.73;;;17.80;62.80;;;;;;5108426;27;45263;-79
2022/04/08 08:07:45;;;;;;;1.55;0.63;;;17.80;63.00;;;;;;5104878;27;45294;-79
2022/04/08 08:10:15;;;;;;;2.15;0.70;;;17.80;62.90;;;;;;5103298;27;45334;-79
2022/04/08 08:12:42;;;;;;;2.80;0.95;;;17.80;63.50;;;;;;5103993;27;47386;-79
2022/04/08 08:15:09;;;;;;;1.60;0.60;;;17.80;62.60;;;;;;5104089;27;45294;-79
2022/04/08 08:17:37;;;;;;;2.88;0.60;;;17.80;62.90;;;;;;5104243;27;45383;-79
2022/04/08 08:20:06;;;;;;;1.33;0.45;;;17.80;63.10;;;;;;5102333;27;45530;-78
2022/04/08 08:22:33;;;;;;;2.60;0.70;;;17.80;63.30;;;;;;5104568;27;48231;-79
2022/04/08 08:25:00;;;;;;;1.77;0.60;;;17.80;63.20;;;;;;5104920;27;45212;-79
2022/04/08 08:27:27;;;;;;;2.42;0.70;;;17.80;63.50;;;;;;5099858;27;45290;-79
2022/04/08 08:29:54;;;;;;;1.45;0.50;;;17.80;63.10;;;;;;5106510;27;45476;-78
2022/04/08 08:32:22;;;;;;;1.58;0.70;;;17.80;62.70;;;;;;5105689;27;45542;-79
2022/04/08 08:34:49;;;;;;;1.48;0.60;;;17.80;62.90;;;;;;5106225;27;45325;-78
2022/04/08 08:37:17;;;;;;;0.68;0.55;;;17.80;62.60;;;;;;5093679;27;45144;-78
2022/04/08 08:39:43;;;;;;;1.67;0.55;;;17.80;62.80;;;;;;5107436;27;45313;-79
2022/04/08 08:42:11;;;;;;;2.15;0.75;;;17.80;63.20;;;;;;5094122;27;46592;-79
2022/04/08 08:44:39;;;;;;;1.17;0.57;;;17.70;63.50;;;;;;5108093;27;45385;-78
2022/04/08 08:47:11;;;;;;;2.38;0.45;;;17.70;63.50;;;;;;5106333;27;45504;-78
2022/04/08 08:49:39;;;;;;;0.57;0.38;;;17.70;63.30;;;;;;5096054;27;45511;-78
2022/04/08 08:52:09;;;;;;;1.17;0.70;;;17.70;63.60;;;;;;5105823;27;45962;-79
2022/04/08 08:54:37;;;;;;;0.90;0.35;;;17.60;63.80;;;;;;5109664;27;45253;-79
2022/04/08 08:57:04;;;;;;;1.50;0.57;;;17.70;63.80;;;;;;5110315;27;45118;-79
2022/04/08 08:59:31;;;;;;;1.20;0.50;;;17.70;63.60;;;;;;5110810;27;45464;-79
2022/04/08 09:02:02;;;;;;;0.93;0.45;;;17.70;63.20;;;;;;5111160;27;46025;-79
2022/04/08 09:04:29;;;;;;;2.25;0.70;;;17.70;63.90;;;;;;5104299;27;45180;-79
2022/04/08 09:06:56;;;;;;;1.25;0.40;;;17.70;63.60;;;;;;5110192;27;46605;-79
2022/04/08 09:09:30;;;;;;;1.63;0.50;;;17.70;63.50;;;;;;5109067;27;45413;-79
2022/04/08 09:12:09;;;;;;;1.30;0.60;;;17.70;63.60;;;;;;5111030;27;45250;-79
2022/04/08 09:14:35;;;;;;;1.77;0.60;;;17.70;63.30;;;;;;5104629;27;45246;-79
2022/04/08 09:17:03;;;;;;;2.33;0.57;;;17.70;63.50;;;;;;5106652;27;45202;-79
2022/04/08 09:19:33;;;;;;;0.93;0.45;;;17.80;63.50;;;;;;5109444;27;45162;-79
2022/04/08 09:22:00;;;;;;;2.85;0.50;;;17.80;63.60;;;;;;5104127;27;46498;-79
2022/04/08 09:24:28;;;;;;;0.98;0.45;;;17.70;63.60;;;;;;5109301;27;45333;-79
2022/04/08 09:26:55;;;;;;;1.25;0.60;;;17.70;63.30;;;;;;5107764;27;45198;-78
2022/04/08 09:29:23;;;;;;;0.63;0.50;;;17.70;63.40;;;;;;5108256;27;45429;-79
2022/04/08 09:31:51;;;;;;;1.08;0.40;;;17.70;63.60;;;;;;5106626;27;46251;-79
2022/04/08 09:34:20;;;;;;;0.93;0.30;;;17.70;63.70;;;;;;5101593;27;45267;-79
2022/04/08 09:36:47;;;;;;;0.60;0.30;;;17.70;63.80;;;;;;5108659;27;45883;-79
2022/04/08 09:39:14;;;;;;;1.90;0.50;;;17.70;63.80;;;;;;5109760;27;45261;-79
2022/04/08 09:41:43;;;;;;;1.35;0.40;;;17.70;63.80;;;;;;5108425;27;47965;-79
2022/04/08 09:44:11;;;;;;;1.85;0.55;;;17.70;64.20;;;;;;5113980;27;45376;-78
2022/04/08 09:46:40;;;;;;;0.95;0.60;;;17.70;64.20;;;;;;5106850;27;45529;-78
2022/04/08 09:49:08;;;;;;;1.83;0.50;;;17.70;64.20;;;;;;5108896;27;45252;-78
2022/04/08 09:51:37;;;;;;;2.03;0.70;;;17.70;64.20;;;;;;5110032;27;47168;-78
2022/04/08 09:54:07;;;;;;;1.38;0.70;;;17.60;64.40;;;;;;5097505;27;45367;-78
2022/04/08 09:56:35;;;;;;;1.80;0.52;;;17.70;64.30;;;;;;5108400;27;45185;-78
2022/04/08 09:59:05;;;;;;;2.25;0.50;;;17.70;64.10;;;;;;5109042;27;45611;-78
2022/04/08 10:01:33;;;;;;;2.42;0.73;;;17.70;64.00;;;;;;5106104;27;47331;-79
2022/04/08 10:04:04;;;;;;;1.13;0.70;;;17.70;64.30;;;;;;5104318;27;45187;-79
2022/04/08 10:06:31;;;;;;;0.82;0.50;;;17.70;63.90;;;;;;5108657;27;45253;-78
2022/04/08 10:08:58;;;;;;;1.25;0.50;;;17.70;64.00;;;;;;5099277;27;45545;-78
2022/04/08 10:11:35;;;;;;;0.93;0.40;;;17.70;64.00;;;;;;5107209;27;46204;-79
2022/04/08 10:14:24;;;;;;;1.30;0.43;;;17.80;63.80;;;;;;5104398;27;45618;-78
2022/04/08 10:16:52;;;;;;;1.30;0.47;;;17.70;63.80;;;;;;5106206;27;46033;-78
2022/04/08 10:19:22;;;;;;;1.90;0.47;;;17.70;64.10;;;;;;5100159;27;45327;-79
2022/04/08 10:21:53;;;;;;;0.88;0.50;;;17.70;64.20;;;;;;5101954;27;47104;-78
2022/04/08 10:24:23;;;;;;;0.43;0.40;;;17.70;64.30;;;;;;5098632;27;45285;-79
2022/04/08 10:26:59;;;;;;;1.02;0.52;;;17.60;64.30;;;;;;5104366;27;45274;-78
2022/04/08 10:29:25;;;;;;;1.30;0.50;;;17.60;64.60;;;;;;5105055;27;45425;-78
2022/04/08 10:31:57;;;;;;;3.35;0.65;;;17.60;64.60;;;;;;5105758;27;45460;-79
2022/04/08 10:34:26;;;;;;;0.68;0.47;;;17.60;64.50;;;;;;5105536;27;45658;-79
2022/04/08 10:36:53;;;;;;;1.70;0.60;;;17.60;63.80;;;;;;5101389;27;45385;-79
2022/04/08 10:39:22;;;;;;;0.95;0.60;;;17.60;64.20;;;;;;5107434;27;45198;-79
2022/04/08 10:41:51;;;;;;;0.98;0.57;;;17.60;64.20;;;;;;5106195;27;47293;-79
2022/04/08 10:44:30;;;;;;;1.48;0.55;;;17.60;64.50;;;;;;5108458;27;45195;-78
2022/04/08 10:46:59;;;;;;;0.77;0.52;;;17.60;64.30;;;;;;5108661;27;45594;-79
2022/04/08 10:49:27;;;;;;;1.55;0.40;;;17.60;64.10;;;;;;5107822;27;45522;-79
2022/04/08 10:51:54;;;;;;;1.52;0.65;;;17.70;64.00;;;;;;5107375;27;45325;-79
2022/04/08 10:54:21;;;;;;;1.38;0.50;;;17.70;64.00;;;;;;5109205;27;45231;-79
2022/04/08 10:56:58;;;;;;;3.70;0.60;;;17.70;63.90;;;;;;5106516;27;45298;-80
2022/04/08 10:59:30;;;;;;;23.45;2.40;;;17.70;64.00;;;;;;5102160;27;45452;-79
2022/04/08 11:02:02;;;;;;;27.67;2.72;;;17.80;64.10;;;;;;5104659;27;46554;-78
2022/04/08 11:04:30;;;;;;;14.70;2.17;;;17.80;64.20;;;;;;5108049;27;45279;-77
2022/04/08 11:07:03;;;;;;;10.20;1.52;;;17.80;63.40;;;;;;5106593;27;45334;-77
2022/04/08 11:09:31;;;;;;;21.83;1.38;;;17.70;64.10;;;;;;5105785;27;45416;-78
2022/04/08 11:11:58;;;;;;;7.63;1.55;;;17.70;64.10;;;;;;5096507;27;48014;-77
2022/04/08 11:14:28;;;;;;;10.95;1.00;;;17.70;63.90;;;;;;5101536;27;46863;-78
2022/04/08 11:16:55;;;;;;;8.88;1.13;;;17.70;64.20;;;;;;5101235;27;45266;-78
2022/04/08 11:19:23;;;;;;;5.93;1.80;;;17.60;63.80;;;;;;5100813;27;45528;-78
2022/04/08 11:21:51;;;;;;;4.43;1.08;;;17.60;63.90;;;;;;5102641;27;48278;-78
2022/04/08 11:24:19;;;;;;;6.20;1.00;;;17.60;64.20;;;;;;5108605;27;45099;-78
2022/04/08 11:26:47;;;;;;;3.95;0.88;;;17.60;63.40;;;;;;5105840;27;46162;-78
2022/04/08 11:29:16;;;;;;;3.58;1.00;;;17.60;62.90;;;;;;5106035;27;45326;-78
2022/04/08 11:31:44;;;;;;;3.00;1.13;;;17.60;62.90;;;;;;5105814;27;47791;-78
2022/04/08 11:34:13;;;;;;;4.43;1.35;;;17.60;63.80;;;;;;5103500;27;45544;-78
2022/04/08 11:36:40;;;;;;;3.58;1.00;;;17.60;63.70;;;;;;5107753;27;45276;-78
2022/04/08 11:39:22;;;;;;;9.35;1.00;;;17.70;63.40;;;;;;5162351;27;45284;-78
2022/04/08 11:41:53;;;;;;;4.05;1.00;;;17.70;63.50;;;;;;5139205;27;45422;-77
2022/04/08 11:44:20;;;;;;;4.60;0.70;;;17.70;63.40;;;;;;5141088;27;45333;-78
2022/04/08 11:46:47;;;;;;;6.03;0.82;;;17.70;63.50;;;;;;5145748;27;45340;-78
2022/04/08 11:49:14;;;;;;;6.18;1.02;;;17.70;63.40;;;;;;5143217;27;47930;-78
2022/04/08 11:51:41;;;;;;;3.90;0.70;;;17.70;63.40;;;;;;5142269;27;45348;-78
2022/04/08 11:54:08;;;;;;;3.55;0.70;;;17.70;63.10;;;;;;5146011;27;45248;-78
2022/04/08 11:56:37;;;;;;;4.65;1.55;;;17.70;62.40;;;;;;5142889;27;45387;-78
2022/04/08 11:59:05;;;;;;;1.92;0.60;;;17.70;62.60;;;;;;5142967;27;47466;-78
2022/04/08 12:01:34;;;;;;;3.15;0.70;;;17.70;62.20;;;;;;5148387;27;45314;-78
2022/04/08 12:04:02;;;;;;;5.35;0.90;;;17.60;62.20;;;;;;5144310;27;45244;-78
2022/04/08 12:06:39;;;;;;;1.55;0.60;;;17.60;62.40;;;;;;5138981;27;45389;-78
2022/04/08 12:09:06;;;;;;;3.40;1.02;;;17.60;62.40;;;;;;5144467;27;45285;-78
2022/04/08 12:11:35;;;;;;;3.85;0.77;;;17.60;62.30;;;;;;5143677;27;45318;-78
2022/04/08 12:14:06;;;;;;;1.70;0.60;;;17.60;62.00;;;;;;5145783;27;45225;-78
2022/04/08 12:16:33;;;;;;;1.90;0.65;;;17.60;62.20;;;;;;5144587;27;45157;-78
2022/04/08 12:19:00;;;;;;;2.00;0.47;;;17.60;62.40;;;;;;5143417;27;46379;-78
2022/04/08 12:21:29;;;;;;;0.85;0.50;;;17.60;61.90;;;;;;5143569;27;46246;-78
2022/04/08 12:23:58;;;;;;;3.05;0.57;;;17.60;62.10;;;;;;5138051;27;46606;-77
2022/04/08 12:26:28;;;;;;;2.67;0.80;;;17.70;62.70;;;;;;5136830;27;45146;-78
2022/04/08 12:29:11;;;;;;;1.98;0.70;;;17.70;62.20;;;;;;5136033;27;47410;-78
2022/04/08 12:31:46;;;;;;;2.05;0.50;;;17.70;62.00;;;;;;5135774;27;45159;-78
2022/04/08 12:34:14;;;;;;;4.07;0.50;;;17.70;62.20;;;;;;5141524;27;45376;-78
2022/04/08 12:36:41;;;;;;;3.08;0.90;;;17.70;62.40;;;;;;5138946;27;45375;-78
2022/04/08 12:39:08;;;;;;;1.48;0.50;;;17.70;62.60;;;;;;5143024;27;46518;-78
2022/04/08 12:41:38;;;;;;;1.30;0.50;;;17.70;62.60;;;;;;5140887;27;45557;-76
2022/04/08 12:44:05;;;;;;;1.30;0.60;;;17.70;62.70;;;;;;5135746;27;45748;-76
2022/04/08 12:46:33;;;;;;;1.13;0.40;;;17.60;62.60;;;;;;5140575;27;45255;-77
2022/04/08 12:49:00;;;;;;;1.45;0.52;;;17.60;63.30;;;;;;5134866;27;47116;-77